Time;durP1;ratioP1;P1;durP2;ratioP2;P2;SDS_P1;SDS_P2;PMS_P1;PMS_P2;Temp;Humidity;BMP_temperature;BMP_pressure;BME280_temperature;BME280_humidity;BME280_pressure;Samples;Min_cycle;Max_cycle;Signal;HPM_P1;HPM_P2
2022/08/10 00:01:54;;;;;;;0.70;0.70;;;26.70;50.30;;;;;;5030169;28;20144;-61
2022/08/10 00:04:22;;;;;;;0.57;0.57;;;26.70;50.30;;;;;;5047546;28;20135;-61
2022/08/10 00:06:52;;;;;;;0.80;0.80;;;26.60;50.20;;;;;;5047793;28;20463;-62
2022/08/10 00:09:20;;;;;;;0.80;0.80;;;26.60;50.20;;;;;;5047585;28;20095;-62
2022/08/10 00:11:48;;;;;;;1.00;0.90;;;26.60;50.30;;;;;;5043334;28;20145;-61
2022/08/10 00:14:15;;;;;;;0.85;0.85;;;26.60;50.30;;;;;;5047637;28;20106;-61
2022/08/10 00:16:42;;;;;;;0.60;0.60;;;26.60;50.30;;;;;;5045869;28;20122;-62
2022/08/10 00:19:09;;;;;;;0.93;0.93;;;26.60;50.30;;;;;;5047470;28;20049;-61
2022/08/10 00:21:36;;;;;;;0.70;0.70;;;26.60;50.30;;;;;;5047214;28;20349;-62
2022/08/10 00:24:04;;;;;;;0.68;0.68;;;26.60;50.30;;;;;;5047342;28;20514;-62
2022/08/10 00:26:31;;;;;;;0.80;0.80;;;26.60;50.30;;;;;;5047747;28;20049;-63
2022/08/10 00:29:18;;;;;;;0.82;0.82;;;26.60;50.40;;;;;;5047134;28;20053;-61
2022/08/10 00:31:46;;;;;;;0.88;0.88;;;26.60;50.40;;;;;;5046932;28;20595;-61
2022/08/10 00:34:26;;;;;;;0.60;0.60;;;26.60;50.40;;;;;;5047193;28;20083;-61
2022/08/10 00:36:54;;;;;;;0.70;0.70;;;26.60;50.50;;;;;;5047354;28;20049;-62
2022/08/10 00:39:21;;;;;;;0.80;0.80;;;26.60;50.50;;;;;;5046967;28;20076;-62
2022/08/10 00:41:49;;;;;;;0.70;0.70;;;26.60;50.50;;;;;;5045248;28;20053;-62
2022/08/10 00:44:39;;;;;;;0.52;0.52;;;26.50;50.40;;;;;;5047322;28;20095;-62
2022/08/10 00:47:06;;;;;;;0.70;0.70;;;26.50;50.50;;;;;;5046429;28;20090;-62
2022/08/10 00:49:54;;;;;;;1.00;0.70;;;26.50;50.40;;;;;;5046688;28;20137;-62
2022/08/10 00:52:23;;;;;;;0.60;0.60;;;26.50;50.40;;;;;;5045417;28;20052;-62
2022/08/10 00:54:51;;;;;;;0.93;0.93;;;26.60;50.50;;;;;;5047138;28;20387;-62
2022/08/10 00:57:18;;;;;;;0.70;0.70;;;26.50;50.40;;;;;;5046419;28;20124;-61
2022/08/10 00:59:46;;;;;;;0.80;0.80;;;26.50;50.40;;;;;;5047005;28;20295;-62
2022/08/10 01:02:24;;;;;;;0.75;0.73;;;26.50;50.50;;;;;;5046746;28;20494;-62
2022/08/10 01:04:52;;;;;;;1.15;0.57;;;26.50;50.50;;;;;;5046151;28;20517;-62
2022/08/10 01:07:58;;;;;;;0.68;0.68;;;26.50;50.50;;;;;;5046515;28;20041;-61
2022/08/10 01:10:48;;;;;;;0.65;0.65;;;26.50;50.50;;;;;;5045972;28;20045;-61
2022/08/10 01:13:36;;;;;;;0.82;0.82;;;26.50;50.50;;;;;;5044938;28;20132;-62
2022/08/10 01:16:25;;;;;;;0.50;0.50;;;26.50;50.50;;;;;;5045210;28;20106;-62
2022/08/10 01:18:59;;;;;;;0.77;0.77;;;26.50;50.50;;;;;;5045450;28;20049;-62
2022/08/10 01:22:06;;;;;;;0.70;0.70;;;26.50;50.50;;;;;;5046127;28;20049;-61
2022/08/10 01:25:08;;;;;;;1.10;1.10;;;26.50;50.60;;;;;;5045638;28;20049;-61
2022/08/10 01:28:15;;;;;;;0.90;0.90;;;26.50;50.60;;;;;;5045772;28;20211;-61
2022/08/10 01:30:45;;;;;;;0.80;0.80;;;26.50;50.60;;;;;;5046439;28;20057;-61
2022/08/10 01:33:25;;;;;;;0.85;0.85;;;26.50;50.60;;;;;;5044296;28;20402;-62
2022/08/10 01:36:10;;;;;;;0.60;0.60;;;26.50;50.70;;;;;;5045503;28;20110;-62
2022/08/10 01:38:45;;;;;;;0.65;0.60;;;26.50;50.70;;;;;;5046467;28;20053;-61
2022/08/10 01:41:25;;;;;;;0.60;0.60;;;26.50;50.70;;;;;;5044884;28;20053;-62
2022/08/10 01:44:11;;;;;;;0.50;0.50;;;26.50;50.70;;;;;;5045878;28;20635;-61
2022/08/10 01:46:44;;;;;;;2.03;0.60;;;26.50;50.70;;;;;;5041098;28;20475;-62
2022/08/10 01:49:14;;;;;;;0.50;0.50;;;26.50;50.70;;;;;;5046284;28;20449;-62
2022/08/10 01:51:55;;;;;;;2.05;0.98;;;26.50;50.70;;;;;;5045924;28;20124;-61
2022/08/10 01:54:29;;;;;;;0.70;0.70;;;26.50;50.70;;;;;;5045667;28;20146;-61
2022/08/10 01:56:58;;;;;;;0.60;0.60;;;26.50;50.70;;;;;;5046275;28;20101;-61
2022/08/10 01:59:38;;;;;;;0.60;0.60;;;26.50;50.70;;;;;;5045894;28;20661;-61
2022/08/10 02:02:08;;;;;;;0.50;0.50;;;26.50;50.70;;;;;;5046098;28;20053;-62
2022/08/10 02:04:40;;;;;;;1.33;0.65;;;26.50;50.70;;;;;;5046020;28;20049;-61
2022/08/10 02:07:12;;;;;;;0.70;0.70;;;26.50;50.80;;;;;;5045775;28;20289;-62
2022/08/10 02:09:44;;;;;;;0.63;0.63;;;26.50;50.80;;;;;;5045858;28;20098;-61
2022/08/10 02:12:17;;;;;;;0.70;0.70;;;26.50;50.80;;;;;;5045979;28;20128;-62
2022/08/10 02:14:52;;;;;;;0.80;0.80;;;26.50;50.80;;;;;;5046709;28;20055;-61
2022/08/10 02:17:24;;;;;;;0.75;0.70;;;26.40;50.70;;;;;;5040900;28;20045;-61
2022/08/10 02:20:18;;;;;;;0.88;0.88;;;26.50;50.80;;;;;;5046287;28;20167;-61
2022/08/10 02:22:49;;;;;;;0.82;0.82;;;26.50;50.80;;;;;;5047301;28;20103;-61
2022/08/10 02:25:20;;;;;;;0.70;0.70;;;26.40;50.70;;;;;;5049670;28;20079;-61
2022/08/10 02:28:08;;;;;;;0.70;0.70;;;26.40;50.70;;;;;;5049095;28;20481;-62
2022/08/10 02:30:36;;;;;;;0.60;0.60;;;26.40;50.70;;;;;;5049875;28;20053;-61
2022/08/10 02:33:05;;;;;;;0.75;0.60;;;26.50;50.80;;;;;;5049631;28;20041;-61
2022/08/10 02:35:34;;;;;;;0.55;0.55;;;26.50;50.80;;;;;;5049373;28;20044;-61
2022/08/10 02:38:31;;;;;;;0.50;0.50;;;26.50;50.80;;;;;;5048438;28;20057;-61
2022/08/10 02:41:33;;;;;;;2.17;0.85;;;26.50;50.80;;;;;;5047919;28;20041;-61
2022/08/10 02:44:44;;;;;;;0.80;0.80;;;26.40;50.70;;;;;;5049194;28;20132;-61
2022/08/10 02:47:40;;;;;;;0.60;0.60;;;26.50;50.80;;;;;;5046666;28;20063;-61
2022/08/10 02:50:35;;;;;;;0.60;0.60;;;26.40;50.70;;;;;;5047416;28;20049;-61
2022/08/10 02:53:15;;;;;;;0.60;0.60;;;26.50;50.80;;;;;;5048891;28;20562;-61
2022/08/10 02:56:34;;;;;;;0.90;0.90;;;26.40;50.80;;;;;;5048987;28;20160;-62
2022/08/10 02:59:12;;;;;;;1.00;1.00;;;26.40;50.80;;;;;;5049198;28;20045;-62
2022/08/10 03:01:46;;;;;;;0.70;0.70;;;26.50;50.90;;;;;;5048765;28;20137;-61
2022/08/10 03:04:19;;;;;;;0.77;0.70;;;26.40;50.80;;;;;;5048774;28;20044;-62
2022/08/10 03:07:11;;;;;;;0.80;0.80;;;26.40;50.80;;;;;;5048565;28;20306;-61
2022/08/10 03:09:40;;;;;;;0.60;0.60;;;26.40;50.90;;;;;;5049033;28;20451;-61
2022/08/10 03:12:11;;;;;;;0.90;0.90;;;26.40;50.90;;;;;;5048332;28;20137;-62
2022/08/10 03:14:59;;;;;;;0.68;0.68;;;26.40;50.90;;;;;;5048128;28;20045;-63
2022/08/10 03:17:29;;;;;;;0.55;0.50;;;26.40;50.90;;;;;;5048602;28;20049;-61
2022/08/10 03:19:58;;;;;;;0.60;0.60;;;26.40;50.90;;;;;;5042789;28;20049;-62
2022/08/10 03:22:46;;;;;;;0.65;0.65;;;26.40;50.90;;;;;;5048149;28;20051;-61
2022/08/10 03:25:14;;;;;;;0.80;0.80;;;26.40;50.90;;;;;;5048247;28;20147;-62
2022/08/10 03:27:42;;;;;;;0.93;0.93;;;26.40;51.00;;;;;;5047554;28;20080;-61
2022/08/10 03:30:10;;;;;;;0.55;0.55;;;26.40;51.00;;;;;;5048438;28;20049;-61
2022/08/10 03:32:59;;;;;;;1.65;0.75;;;26.40;51.00;;;;;;5048243;28;20045;-61
2022/08/10 03:35:27;;;;;;;0.52;0.52;;;26.40;51.00;;;;;;5046776;28;20128;-61
2022/08/10 03:37:54;;;;;;;0.73;0.73;;;26.40;51.00;;;;;;5047736;28;20084;-61
2022/08/10 03:40:31;;;;;;;0.50;0.50;;;26.40;51.00;;;;;;5048479;28;20108;-62
2022/08/10 03:43:18;;;;;;;4.60;1.38;;;26.40;51.00;;;;;;5046916;28;20041;-61
2022/08/10 03:45:56;;;;;;;0.88;0.85;;;26.40;51.00;;;;;;5046663;28;20575;-62
2022/08/10 03:48:26;;;;;;;1.08;0.82;;;26.40;51.00;;;;;;5047925;28;20076;-61
2022/08/10 03:51:14;;;;;;;0.52;0.52;;;26.40;51.00;;;;;;5044029;28;20132;-62
2022/08/10 03:53:42;;;;;;;1.05;0.68;;;26.40;51.00;;;;;;5048033;28;20060;-61
2022/08/10 03:56:30;;;;;;;0.70;0.70;;;26.40;51.00;;;;;;5048074;28;20470;-61
2022/08/10 03:58:59;;;;;;;0.93;0.93;;;26.40;51.00;;;;;;5047711;28;20544;-61
2022/08/10 04:01:28;;;;;;;0.50;0.50;;;26.40;51.00;;;;;;5047622;28;20057;-61
2022/08/10 04:04:15;;;;;;;3.60;0.80;;;26.40;51.00;;;;;;5047588;28;20500;-61
2022/08/10 04:06:52;;;;;;;1.00;0.90;;;26.40;51.00;;;;;;5047636;28;20061;-61
2022/08/10 04:09:24;;;;;;;0.73;0.32;;;26.40;51.00;;;;;;5047322;28;20078;-61
2022/08/10 04:12:11;;;;;;;1.45;0.80;;;26.40;51.00;;;;;;5046315;28;20237;-61
2022/08/10 04:14:38;;;;;;;0.73;0.73;;;26.40;50.90;;;;;;5047569;28;20098;-61
2022/08/10 04:17:18;;;;;;;0.80;0.80;;;26.40;50.90;;;;;;5046533;28;20071;-61
2022/08/10 04:20:10;;;;;;;0.70;0.70;;;26.40;50.90;;;;;;5047171;28;20210;-61
2022/08/10 04:22:40;;;;;;;0.75;0.60;;;26.40;50.90;;;;;;5042548;28;20497;-61
2022/08/10 04:25:08;;;;;;;;;;;26.40;50.90;;;;;;5047495;28;20068;-61
2022/08/10 04:27:36;;;;;;;0.98;0.80;;;26.40;50.90;;;;;;5047155;28;20163;-61
2022/08/10 04:30:03;;;;;;;0.55;0.55;;;26.40;50.90;;;;;;5047254;28;20494;-61
2022/08/10 04:32:33;;;;;;;0.90;0.63;;;26.40;50.90;;;;;;5045912;28;20068;-61
2022/08/10 04:35:03;;;;;;;1.05;0.73;;;26.40;50.90;;;;;;5046856;28;20136;-61
2022/08/10 04:37:31;;;;;;;0.65;0.65;;;26.50;51.00;;;;;;5046854;28;20323;-61
2022/08/10 04:40:00;;;;;;;0.80;0.80;;;26.50;50.90;;;;;;5046943;28;20341;-61
2022/08/10 04:42:27;;;;;;;0.95;0.80;;;26.50;50.90;;;;;;5047299;28;20182;-61
2022/08/10 04:44:55;;;;;;;0.60;0.60;;;26.50;50.90;;;;;;5046611;28;20512;-61
2022/08/10 04:47:23;;;;;;;1.00;0.77;;;26.50;50.80;;;;;;5047423;28;20080;-61
2022/08/10 04:50:10;;;;;;;3.25;0.77;;;26.50;50.80;;;;;;5045160;28;20391;-61
2022/08/10 04:52:38;;;;;;;0.80;0.80;;;26.50;50.70;;;;;;5045095;28;20037;-61
2022/08/10 04:55:05;;;;;;;0.63;0.63;;;26.50;50.70;;;;;;5042488;28;20136;-61
2022/08/10 04:57:32;;;;;;;2.55;1.08;;;26.50;50.70;;;;;;5029015;28;20045;-61
2022/08/10 04:59:59;;;;;;;0.70;0.70;;;26.50;50.70;;;;;;5046421;28;20087;-61
2022/08/10 05:02:26;;;;;;;0.85;0.85;;;26.60;50.70;;;;;;5048726;28;20095;-61
2022/08/10 05:05:05;;;;;;;0.63;0.63;;;26.60;50.60;;;;;;5044830;28;20083;-61
2022/08/10 05:07:32;;;;;;;0.90;0.68;;;26.60;50.50;;;;;;5029871;28;20048;-61
2022/08/10 05:10:19;;;;;;;1.52;0.80;;;26.50;50.10;;;;;;5041831;28;20392;-61
2022/08/10 05:12:46;;;;;;;1.10;0.68;;;26.50;49.90;;;;;;5041741;28;20115;-61
2022/08/10 05:15:14;;;;;;;0.98;0.98;;;26.40;49.90;;;;;;5044305;28;20053;-61
2022/08/10 05:17:42;;;;;;;0.98;0.73;;;26.30;49.90;;;;;;5023431;28;20480;-61
2022/08/10 05:20:29;;;;;;;1.15;1.05;;;26.10;50.00;;;;;;5045558;28;20068;-61
2022/08/10 05:22:56;;;;;;;0.70;0.70;;;25.90;50.20;;;;;;5043097;28;20391;-61
2022/08/10 05:25:23;;;;;;;1.10;1.00;;;25.60;50.30;;;;;;5035222;28;20118;-61
2022/08/10 05:27:51;;;;;;;1.38;1.00;;;25.30;49.80;;;;;;5035689;28;20059;-60
2022/08/10 05:30:22;;;;;;;1.13;1.05;;;24.90;49.30;;;;;;5043723;28;20045;-61
2022/08/10 05:32:49;;;;;;;1.15;1.02;;;24.50;48.90;;;;;;5036841;28;20675;-60
2022/08/10 05:35:27;;;;;;;1.30;0.95;;;24.20;48.80;;;;;;5038660;28;20140;-61
2022/08/10 05:37:55;;;;;;;1.65;1.17;;;23.80;48.80;;;;;;5032880;28;20049;-62
2022/08/10 05:40:41;;;;;;;1.80;1.25;;;23.40;48.70;;;;;;5037429;28;20049;-61
2022/08/10 05:43:21;;;;;;;1.33;1.23;;;23.00;48.60;;;;;;5038770;28;20485;-61
2022/08/10 05:45:50;;;;;;;1.08;1.00;;;22.70;48.70;;;;;;5038948;28;20198;-61
2022/08/10 05:48:40;;;;;;;3.03;1.52;;;22.40;48.80;;;;;;5033228;28;20530;-61
2022/08/10 05:51:28;;;;;;;1.70;1.48;;;22.00;49.50;;;;;;5029002;28;20114;-61
2022/08/10 05:53:56;;;;;;;8.00;1.50;;;21.70;49.70;;;;;;5032902;28;20139;-68
2022/08/10 05:56:37;;;;;;;4.72;1.80;;;21.50;49.50;;;;;;5037580;28;20298;-66
2022/08/10 05:59:28;;;;;;;3.28;2.28;;;21.30;49.10;;;;;;5041704;28;20055;-69
2022/08/10 06:02:35;;;;;;;5.30;1.67;;;20.90;49.90;;;;;;5045924;28;20063;-73
2022/08/10 06:05:24;;;;;;;2.63;1.52;;;20.70;51.40;;;;;;5043941;28;20556;-71
2022/08/10 06:07:59;;;;;;;4.75;1.98;;;20.60;51.80;;;;;;5044976;28;20041;-70
2022/08/10 06:10:32;;;;;;;3.50;1.70;;;20.50;52.30;;;;;;5038229;28;20090;-68
2022/08/10 06:16:05;;;;;;;4.25;1.80;;;20.50;51.70;;;;;;5040418;28;20433;-65
2022/08/10 06:18:32;;;;;;;6.07;2.63;;;20.50;52.40;;;;;;5039819;28;20041;-67
2022/08/10 06:21:01;;;;;;;7.03;1.90;;;20.50;52.20;;;;;;5036476;28;20151;-68
2022/08/10 06:23:29;;;;;;;7.03;1.83;;;20.40;52.10;;;;;;5037885;28;20044;-66
2022/08/10 06:25:58;;;;;;;3.65;1.73;;;20.30;52.20;;;;;;5033643;28;20664;-67
2022/08/10 06:28:49;;;;;;;2.22;2.03;;;20.40;52.80;;;;;;5033896;28;20465;-67
2022/08/10 06:31:31;;;;;;;4.53;1.45;;;20.50;52.50;;;;;;5038947;28;20052;-68
2022/08/10 06:34:19;;;;;;;3.25;1.65;;;20.60;52.20;;;;;;5030087;28;20053;-67
2022/08/10 06:36:47;;;;;;;3.50;1.70;;;20.80;52.20;;;;;;5037656;28;20049;-68
2022/08/10 06:39:15;;;;;;;8.85;1.67;;;20.90;52.10;;;;;;5042341;28;20060;-69
2022/08/10 06:42:13;;;;;;;2.58;2.10;;;21.10;52.30;;;;;;5030176;28;20554;-67
2022/08/10 06:45:00;;;;;;;5.82;1.85;;;21.20;51.50;;;;;;5038981;28;20131;-70
2022/08/10 06:47:52;;;;;;;3.70;1.42;;;21.30;51.10;;;;;;5037486;28;20045;-69
2022/08/10 06:50:27;;;;;;;3.20;1.80;;;21.10;50.70;;;;;;5044858;28;20448;-69
2022/08/10 06:53:17;;;;;;;4.88;2.33;;;21.10;51.10;;;;;;5037281;28;20124;-71
2022/08/10 06:55:50;;;;;;;3.17;1.52;;;21.20;51.60;;;;;;5037784;28;20405;-68
2022/08/10 06:58:32;;;;;;;3.33;1.50;;;21.20;51.00;;;;;;5027564;28;20272;-69
2022/08/10 07:01:04;;;;;;;3.58;2.05;;;21.10;51.50;;;;;;5023381;28;20045;-64
2022/08/10 07:03:37;;;;;;;6.80;2.50;;;21.10;52.20;;;;;;5042775;28;20063;-66
2022/08/10 07:06:06;;;;;;;4.57;1.52;;;21.00;51.70;;;;;;5041802;28;20126;-67
2022/08/10 07:08:35;;;;;;;1.10;1.10;;;21.10;52.00;;;;;;5038196;28;20120;-69
2022/08/10 07:11:04;;;;;;;3.58;1.52;;;21.30;51.40;;;;;;5034699;28;20072;-67
2022/08/10 07:13:39;;;;;;;7.00;1.70;;;21.20;51.60;;;;;;5042799;28;20080;-68
2022/08/10 07:16:28;;;;;;;2.80;1.70;;;21.10;51.10;;;;;;5040359;28;20052;-67
2022/08/10 07:18:57;;;;;;;2.85;1.75;;;21.10;51.70;;;;;;5039854;28;20057;-67
2022/08/10 07:21:27;;;;;;;3.53;1.73;;;21.30;51.40;;;;;;5035039;28;20054;-66
2022/08/10 07:23:54;;;;;;;2.30;1.43;;;21.20;51.20;;;;;;5036420;28;20064;-66
2022/08/10 07:26:29;;;;;;;2.78;1.92;;;21.10;51.50;;;;;;5035812;28;20057;-65
2022/08/10 07:28:58;;;;;;;3.92;1.70;;;21.20;51.60;;;;;;5036331;28;20053;-66
2022/08/10 07:31:25;;;;;;;3.35;1.55;;;21.30;51.10;;;;;;5029803;28;20045;-68
2022/08/10 07:34:16;;;;;;;5.03;1.33;;;21.50;51.20;;;;;;5036104;28;20045;-67
2022/08/10 07:37:01;;;;;;;4.70;1.65;;;21.60;50.50;;;;;;5038800;28;20416;-67
2022/08/10 07:39:38;;;;;;;3.28;1.30;;;21.40;51.00;;;;;;5043498;28;20133;-68
2022/08/10 07:42:28;;;;;;;1.50;1.33;;;21.40;51.70;;;;;;5036611;28;20315;-69
2022/08/10 07:44:57;;;;;;;3.70;1.50;;;21.60;50.80;;;;;;5041429;28;20470;-69
2022/08/10 07:47:33;;;;;;;3.30;1.48;;;21.70;50.40;;;;;;5039764;28;20095;-68
2022/08/10 07:50:23;;;;;;;1.75;1.50;;;21.60;50.70;;;;;;5035841;28;20045;-69
2022/08/10 07:52:54;;;;;;;1.50;1.40;;;21.60;51.00;;;;;;5032005;28;20190;-69
2022/08/10 07:55:21;;;;;;;4.20;1.60;;;21.60;50.70;;;;;;5025626;28;20584;-67
2022/08/10 07:58:10;;;;;;;4.00;1.60;;;21.70;50.30;;;;;;5036110;28;20386;-70
2022/08/10 08:00:39;;;;;;;1.85;1.40;;;21.80;49.90;;;;;;5037957;28;20067;-70
2022/08/10 08:03:09;;;;;;;1.80;1.50;;;21.70;50.40;;;;;;5034359;28;20053;-70
2022/08/10 08:05:39;;;;;;;4.80;1.48;;;21.60;50.10;;;;;;5036673;28;20064;-72
2022/08/10 08:08:27;;;;;;;3.45;1.63;;;21.50;49.70;;;;;;5042231;28;20044;-68
2022/08/10 08:10:57;;;;;;;7.78;1.80;;;21.50;49.90;;;;;;5038554;28;20052;-70
2022/08/10 08:13:25;;;;;;;4.28;1.85;;;21.50;50.00;;;;;;5034816;28;20570;-70
2022/08/10 08:15:54;;;;;;;3.60;1.50;;;21.60;49.80;;;;;;5036217;28;20072;-71
2022/08/10 08:18:43;;;;;;;3.53;1.88;;;21.60;49.60;;;;;;5038507;28;20405;-70
2022/08/10 08:21:30;;;;;;;1.40;1.30;;;21.60;49.70;;;;;;5037182;28;20544;-71
2022/08/10 08:24:20;;;;;;;1.60;1.25;;;21.60;49.50;;;;;;5058895;28;20141;-71
2022/08/10 08:27:01;;;;;;;1.85;1.30;;;21.70;49.80;;;;;;5036711;28;20076;-73
2022/08/10 08:29:33;;;;;;;3.58;1.85;;;21.80;50.20;;;;;;5039596;28;20045;-73
2022/08/10 08:32:02;;;;;;;4.88;1.52;;;21.70;50.10;;;;;;5037976;28;20517;-72
2022/08/10 08:34:32;;;;;;;3.28;1.42;;;21.60;50.60;;;;;;5036758;28;20490;-73
2022/08/10 08:37:02;;;;;;;1.25;1.00;;;21.50;50.70;;;;;;5034921;28;20641;-72
2022/08/10 08:39:35;;;;;;;4.90;1.60;;;21.60;51.20;;;;;;5041460;28;20069;-72
2022/08/10 08:42:17;;;;;;;2.22;1.90;;;21.70;51.30;;;;;;5040140;28;20053;-71
2022/08/10 08:45:22;;;;;;;1.60;1.20;;;21.70;51.40;;;;;;5041551;28;20048;-70
2022/08/10 08:48:28;;;;;;;2.17;1.50;;;21.80;50.20;;;;;;5057219;28;20061;-69
2022/08/10 08:51:17;;;;;;;3.65;1.80;;;21.60;50.60;;;;;;5039178;28;20048;-70
2022/08/10 08:54:28;;;;;;;4.10;1.40;;;21.70;50.60;;;;;;5035335;28;20397;-69
2022/08/10 08:57:06;;;;;;;1.60;1.50;;;21.60;50.70;;;;;;5038440;28;20102;-69
2022/08/10 09:00:14;;;;;;;3.53;1.50;;;21.60;52.30;;;;;;5039379;28;20114;-68
2022/08/10 09:03:09;;;;;;;1.40;1.30;;;21.40;50.20;;;;;;5035973;28;20037;-63
2022/08/10 09:06:16;;;;;;;4.18;1.50;;;21.50;50.80;;;;;;5043627;28;20044;-62
2022/08/10 09:09:23;;;;;;;2.60;1.35;;;21.40;50.60;;;;;;5036935;28;20156;-62
2022/08/10 09:12:11;;;;;;;2.35;1.20;;;21.10;51.60;;;;;;5034151;28;20052;-62
2022/08/10 09:15:05;;;;;;;1.75;1.58;;;20.90;52.60;;;;;;5042218;28;20122;-61
2022/08/10 09:17:54;;;;;;;1.67;1.58;;;20.70;53.20;;;;;;5038539;28;20080;-62
2022/08/10 09:20:54;;;;;;;3.83;1.65;;;20.60;53.80;;;;;;5065583;28;20410;-63
2022/08/10 09:23:42;;;;;;;;;;;20.40;54.40;;;;;;5047200;28;20478;-61
2022/08/10 09:26:50;;;;;;;1.85;1.42;;;20.30;55.00;;;;;;5043233;28;20304;-60
2022/08/10 09:29:31;;;;;;;2.10;1.65;;;20.20;55.30;;;;;;5041663;28;20072;-60
2022/08/10 09:32:08;;;;;;;4.80;1.40;;;20.10;55.70;;;;;;5040144;28;20052;-62
2022/08/10 09:35:11;;;;;;;1.33;1.23;;;20.10;55.70;;;;;;5039851;28;20052;-63
2022/08/10 09:38:38;;;;;;;1.70;1.60;;;20.10;55.60;;;;;;5037762;28;20048;-63
2022/08/10 09:41:39;;;;;;;2.03;1.83;;;20.10;55.80;;;;;;5041093;28;20460;-63
2022/08/10 09:44:26;;;;;;;1.40;1.30;;;20.20;55.80;;;;;;5044985;28;20100;-63
2022/08/10 09:47:33;;;;;;;3.05;1.48;;;20.10;55.70;;;;;;5040459;28;20559;-62
2022/08/10 09:50:39;;;;;;;1.95;1.38;;;20.10;56.30;;;;;;5041516;28;20045;-62
2022/08/10 09:54:03;;;;;;;2.75;1.35;;;20.20;56.30;;;;;;5045428;28;20049;-61
2022/08/10 09:57:10;;;;;;;2.00;1.35;;;20.20;56.20;;;;;;5045103;28;20494;-62
2022/08/10 10:00:13;;;;;;;1.85;1.50;;;20.30;56.10;;;;;;5042660;28;20702;-61
2022/08/10 10:03:14;;;;;;;2.63;1.55;;;20.30;55.90;;;;;;5049891;28;20132;-62
2022/08/10 10:06:11;;;;;;;1.60;1.50;;;20.30;55.80;;;;;;5039754;28;20392;-62
2022/08/10 10:09:14;;;;;;;2.28;1.30;;;20.30;55.60;;;;;;5038405;28;20195;-62
2022/08/10 10:12:18;;;;;;;1.70;1.58;;;20.30;55.80;;;;;;5033369;28;20095;-62
2022/08/10 10:15:21;;;;;;;0.90;0.90;;;20.30;54.90;;;;;;5040873;28;20132;-62
2022/08/10 10:18:31;;;;;;;1.40;1.00;;;20.20;54.70;;;;;;5038404;28;20136;-62
2022/08/10 10:21:26;;;;;;;4.53;1.45;;;20.20;54.50;;;;;;5035575;28;20525;-62
2022/08/10 10:24:51;;;;;;;3.75;1.33;;;20.20;54.60;;;;;;5037429;28;20308;-63
2022/08/10 10:27:47;;;;;;;2.03;1.30;;;20.10;54.60;;;;;;5040237;28;20511;-62
2022/08/10 10:30:17;;;;;;;1.23;1.23;;;20.10;54.40;;;;;;5028306;28;20136;-63
2022/08/10 10:32:59;;;;;;;1.15;1.05;;;20.00;54.60;;;;;;5040604;28;20056;-62
2022/08/10 10:35:47;;;;;;;0.88;0.88;;;20.00;54.50;;;;;;5033821;28;20883;-62
2022/08/10 10:38:17;;;;;;;1.13;1.02;;;20.00;54.50;;;;;;5051045;28;20059;-63
2022/08/10 10:40:58;;;;;;;3.55;1.15;;;20.00;54.50;;;;;;5037631;28;20033;-62
2022/08/10 10:44:01;;;;;;;2.10;1.30;;;20.00;54.40;;;;;;5040599;28;20044;-62
2022/08/10 10:46:56;;;;;;;0.98;0.98;;;19.90;54.30;;;;;;5045350;28;20045;-62
2022/08/10 10:49:51;;;;;;;2.88;1.30;;;19.90;54.40;;;;;;5055504;28;20061;-61
2022/08/10 10:52:48;;;;;;;1.35;1.23;;;19.90;54.60;;;;;;5067229;28;20045;-62
2022/08/10 10:55:31;;;;;;;4.85;1.38;;;19.90;55.10;;;;;;5045320;28;20107;-62
2022/08/10 10:58:18;;;;;;;1.15;1.00;;;20.00;54.90;;;;;;5043880;28;20053;-63
2022/08/10 11:01:09;;;;;;;1.30;1.20;;;20.00;54.90;;;;;;5044913;28;20809;-62
2022/08/10 11:04:05;;;;;;;2.85;1.17;;;20.00;54.80;;;;;;5035209;28;20055;-62
2022/08/10 11:07:12;;;;;;;1.33;1.27;;;20.00;55.00;;;;;;5036026;28;20041;-63
2022/08/10 11:09:47;;;;;;;1.00;1.00;;;20.00;54.70;;;;;;5042050;28;20084;-62
2022/08/10 11:13:00;;;;;;;1.55;1.10;;;20.00;54.70;;;;;;5041349;28;20049;-62
2022/08/10 11:16:27;;;;;;;1.95;1.05;;;20.10;54.50;;;;;;5035455;28;20517;-62
2022/08/10 11:19:06;;;;;;;1.52;1.30;;;20.00;54.10;;;;;;5034680;28;21784;-61
2022/08/10 11:22:02;;;;;;;3.72;1.38;;;20.00;54.00;;;;;;5039179;28;20060;-63
2022/08/10 11:24:52;;;;;;;1.30;1.20;;;20.00;53.80;;;;;;5037640;28;20041;-62
2022/08/10 11:27:51;;;;;;;1.55;1.45;;;20.00;53.90;;;;;;5039594;28;20045;-59
2022/08/10 11:30:24;;;;;;;1.33;1.23;;;19.90;53.80;;;;;;5027591;28;20041;-61
2022/08/10 11:33:31;;;;;;;1.42;1.05;;;19.90;54.00;;;;;;5035826;28;20049;-63
2022/08/10 11:36:25;;;;;;;;;;;19.90;54.10;;;;;;5038789;28;20049;-63
2022/08/10 11:39:08;;;;;;;1.95;1.13;;;19.80;54.40;;;;;;5059188;28;20014;-63
2022/08/10 11:41:53;;;;;;;2.92;1.10;;;19.90;54.60;;;;;;5041003;28;20628;-63
2022/08/10 11:45:18;;;;;;;1.40;1.30;;;19.90;54.60;;;;;;5029521;28;20040;-63
2022/08/10 11:48:08;;;;;;;1.27;1.08;;;19.90;54.50;;;;;;5072456;28;20553;-63
2022/08/10 11:50:49;;;;;;;1.48;0.85;;;20.00;54.50;;;;;;5037827;28;20110;-63
2022/08/10 11:53:33;;;;;;;1.77;0.90;;;20.00;54.40;;;;;;5038719;28;20470;-62
2022/08/10 11:56:09;;;;;;;1.20;1.10;;;20.00;54.40;;;;;;5038155;28;20506;-62
2022/08/10 12:01:45;;;;;;;2.28;0.98;;;20.10;54.50;;;;;;5038075;28;20055;-62
2022/08/10 12:04:15;;;;;;;1.88;1.10;;;20.10;54.50;;;;;;5039426;28;20115;-63
2022/08/10 12:06:44;;;;;;;1.40;0.77;;;20.10;54.30;;;;;;5038774;28;20405;-63
2022/08/10 12:09:24;;;;;;;0.98;0.98;;;20.10;54.30;;;;;;5036027;28;20512;-63
2022/08/10 12:12:12;;;;;;;0.85;0.75;;;20.10;54.40;;;;;;5048144;28;20628;-63
2022/08/10 12:15:04;;;;;;;3.10;1.15;;;20.10;54.30;;;;;;5035592;28;20045;-63
2022/08/10 12:17:46;;;;;;;1.10;1.02;;;20.10;54.30;;;;;;5035944;28;20041;-63
2022/08/10 12:20:34;;;;;;;1.27;0.95;;;20.20;54.20;;;;;;5043245;28;20153;-62
2022/08/10 12:23:12;;;;;;;2.97;1.00;;;20.20;54.20;;;;;;5033673;28;20099;-63
2022/08/10 12:26:13;;;;;;;1.30;1.20;;;20.20;54.20;;;;;;5031901;28;20095;-63
2022/08/10 12:29:17;;;;;;;1.50;1.00;;;20.20;54.00;;;;;;5028743;28;20140;-62
2022/08/10 12:32:05;;;;;;;3.65;0.95;;;20.20;54.00;;;;;;5035007;28;20146;-63
2022/08/10 12:34:50;;;;;;;0.90;0.90;;;20.20;54.00;;;;;;5044089;28;20072;-63
2022/08/10 12:37:25;;;;;;;0.90;0.90;;;20.20;54.20;;;;;;5033058;28;20050;-63
2022/08/10 12:40:16;;;;;;;0.93;0.93;;;20.20;54.30;;;;;;5039828;28;20050;-62
2022/08/10 12:43:22;;;;;;;1.67;0.93;;;20.30;54.20;;;;;;5038843;28;20048;-63
2022/08/10 12:46:49;;;;;;;0.93;0.82;;;20.30;54.10;;;;;;5037540;28;20418;-63
2022/08/10 12:49:41;;;;;;;1.27;0.90;;;20.30;54.30;;;;;;5038106;28;20476;-62
2022/08/10 12:52:33;;;;;;;1.15;0.60;;;20.40;55.40;;;;;;5044649;28;20133;-62
2022/08/10 12:55:03;;;;;;;1.83;1.08;;;20.40;55.30;;;;;;5056660;28;20045;-61
2022/08/10 12:57:35;;;;;;;1.60;0.88;;;20.40;55.30;;;;;;5032738;28;20112;-61
2022/08/10 13:00:05;;;;;;;3.40;0.85;;;20.40;55.30;;;;;;5039469;28;20403;-61
2022/08/10 13:02:44;;;;;;;;;;;20.40;55.30;;;;;;5034670;28;20298;-63
2022/08/10 13:05:16;;;;;;;1.17;0.80;;;20.50;55.50;;;;;;5032400;28;21257;-61
2022/08/10 13:07:45;;;;;;;1.20;1.13;;;20.50;55.40;;;;;;5028081;28;20041;-62
2022/08/10 13:10:48;;;;;;;2.00;1.15;;;20.50;55.30;;;;;;5038845;28;20088;-62
2022/08/10 13:13:19;;;;;;;1.20;1.10;;;20.60;55.40;;;;;;5036496;28;20076;-62
2022/08/10 13:15:51;;;;;;;2.10;0.88;;;20.60;55.40;;;;;;5029018;28;20495;-63
2022/08/10 13:18:26;;;;;;;0.80;0.80;;;20.60;55.50;;;;;;5032599;28;20053;-62
2022/08/10 13:20:59;;;;;;;1.90;0.93;;;20.70;55.50;;;;;;5020028;28;20271;-59
2022/08/10 13:23:30;;;;;;;2.05;1.17;;;20.70;55.60;;;;;;5034885;28;20057;-59
2022/08/10 13:25:59;;;;;;;2.63;0.90;;;20.70;55.50;;;;;;5036127;28;20049;-61
2022/08/10 13:28:41;;;;;;;4.00;1.30;;;20.70;55.60;;;;;;5038864;28;20162;-60
2022/08/10 13:31:17;;;;;;;2.35;1.10;;;20.80;55.50;;;;;;5050096;28;20056;-60
2022/08/10 13:33:54;;;;;;;3.70;1.15;;;20.80;55.50;;;;;;5033918;28;20407;-59
2022/08/10 13:36:42;;;;;;;3.92;1.10;;;20.90;55.50;;;;;;5032871;28;20136;-59
2022/08/10 13:39:12;;;;;;;3.53;1.27;;;20.90;55.40;;;;;;5032632;28;20584;-61
2022/08/10 13:41:42;;;;;;;2.47;0.90;;;20.90;55.30;;;;;;5035721;28;20042;-61
2022/08/10 13:44:14;;;;;;;1.95;1.13;;;20.90;55.50;;;;;;5034188;28;20273;-60
2022/08/10 13:46:50;;;;;;;1.73;1.33;;;20.90;55.60;;;;;;5031919;28;20037;-61
2022/08/10 13:49:20;;;;;;;2.00;1.15;;;21.00;55.30;;;;;;5032858;28;20050;-60
2022/08/10 13:51:49;;;;;;;1.85;1.10;;;21.00;55.30;;;;;;5023988;28;20053;-61
2022/08/10 13:54:37;;;;;;;2.58;1.00;;;21.00;55.00;;;;;;5033259;28;20037;-61
2022/08/10 13:57:05;;;;;;;0.93;0.82;;;21.00;54.80;;;;;;5036271;28;20447;-60
2022/08/10 13:59:34;;;;;;;0.98;0.82;;;21.10;55.00;;;;;;5044317;28;20044;-60
2022/08/10 14:02:42;;;;;;;1.15;0.93;;;21.10;54.80;;;;;;5039579;28;20059;-63
2022/08/10 14:05:10;;;;;;;1.27;1.00;;;21.10;54.90;;;;;;5037237;28;20209;-61
2022/08/10 14:07:43;;;;;;;0.60;0.60;;;21.10;54.90;;;;;;5038693;28;20132;-62